createdAt,value
2023-01-07T00:04:17.995Z,4.57
2023-01-07T00:09:22.368Z,4.17
2023-01-07T00:14:25.381Z,4.43
2023-01-07T00:19:28.354Z,5.90
2023-01-07T00:24:34.231Z,5.23
2023-01-07T00:29:38.761Z,4.80
2023-01-07T00:34:42.395Z,4.40
2023-01-07T00:39:46.847Z,5.70
2023-01-07T00:44:49.926Z,5.77
2023-01-07T00:49:53.083Z,4.63
2023-01-07T00:54:59.139Z,4.80
2023-01-07T01:00:02.406Z,5.90
2023-01-07T01:05:06.586Z,5.20
2023-01-07T01:10:14.415Z,7.67
2023-01-07T01:15:19.744Z,6.20
2023-01-07T01:20:23.125Z,6.10
2023-01-07T01:25:27.717Z,5.77
2023-01-07T01:30:30.655Z,7.33
2023-01-07T01:35:35.323Z,7.33
2023-01-07T01:40:39.752Z,7.13
2023-01-07T01:45:44.029Z,5.27
2023-01-07T01:50:52.054Z,7.30
2023-01-07T01:56:00.018Z,5.07
2023-01-07T02:01:03.542Z,7.37
2023-01-07T02:06:13.267Z,6.13
2023-01-07T02:11:29.229Z,5.50
2023-01-07T02:16:42.800Z,6.60
2023-01-07T02:21:54.717Z,7.90
2023-01-07T02:27:11.496Z,7.10
2023-01-07T02:32:31.691Z,7.23
2023-01-07T02:37:45.181Z,6.17
2023-01-07T02:43:00.010Z,7.83
2023-01-07T02:48:12.150Z,5.63
2023-01-07T02:53:23.154Z,7.40
2023-01-07T02:58:57.144Z,7.03
2023-01-07T03:04:37.419Z,7.30
2023-01-07T03:09:53.586Z,12.60
2023-01-07T03:15:04.906Z,8.30
2023-01-07T03:20:12.321Z,8.60
2023-01-07T03:25:20.716Z,6.97
2023-01-07T03:30:27.403Z,7.70
2023-01-07T03:35:33.939Z,7.70
2023-01-07T03:40:38.642Z,6.93
2023-01-07T03:45:43.903Z,5.73
2023-01-07T03:50:50.006Z,6.30
2023-01-07T03:55:53.283Z,6.00
2023-01-07T04:00:56.720Z,5.37
2023-01-07T04:06:01.331Z,5.90
2023-01-07T04:11:05.244Z,7.83
2023-01-07T04:16:09.246Z,5.77
2023-01-07T04:21:13.910Z,6.93
2023-01-07T04:26:17.568Z,4.67
2023-01-07T04:31:23.523Z,7.50
2023-01-07T04:36:28.141Z,5.47
2023-01-07T04:41:31.667Z,6.03
2023-01-07T04:46:35.145Z,4.93
2023-01-07T04:51:40.048Z,4.10
2023-01-07T04:56:43.461Z,4.40
2023-01-07T05:01:49.602Z,4.47
2023-01-07T05:06:57.993Z,4.40
2023-01-07T05:12:07.527Z,5.03
2023-01-07T05:17:11.317Z,3.63
2023-01-07T05:22:19.314Z,4.97
2023-01-07T05:27:25.610Z,4.33
2023-01-07T05:32:31.684Z,4.10
2023-01-07T05:37:36.443Z,3.33
2023-01-07T05:42:39.740Z,3.17
2023-01-07T05:47:44.203Z,5.13
2023-01-07T05:52:49.881Z,3.83
2023-01-07T05:57:53.154Z,3.60
2023-01-07T06:02:56.161Z,5.30
2023-01-07T06:08:00.514Z,3.37
2023-01-07T06:13:06.299Z,5.10
2023-01-07T06:18:09.670Z,3.93
2023-01-07T06:23:14.151Z,4.60
2023-01-07T06:28:17.282Z,2.70
2023-01-07T06:33:23.312Z,4.13
2023-01-07T06:38:27.644Z,2.37
2023-01-07T06:43:31.198Z,2.80
2023-01-07T06:48:34.358Z,2.30
2023-01-07T06:53:38.792Z,3.43
2023-01-07T06:58:41.898Z,3.03
2023-01-07T07:03:44.884Z,2.17
2023-01-07T07:08:49.323Z,2.77
2023-01-07T07:13:52.344Z,2.00
2023-01-07T07:18:55.834Z,2.30
2023-01-07T07:24:00.618Z,1.87
2023-01-07T07:29:03.687Z,2.27
2023-01-07T07:34:06.781Z,2.40
2023-01-07T07:39:12.278Z,1.67
2023-01-07T07:44:15.446Z,1.57
2023-01-07T07:49:18.447Z,3.10
2023-01-07T07:54:23.964Z,2.73
2023-01-07T07:59:27.293Z,2.90
2023-01-07T08:04:34.588Z,1.57
2023-01-07T08:09:39.235Z,2.63
2023-01-07T08:14:43.823Z,1.97
2023-01-07T08:19:46.914Z,1.73
2023-01-07T08:24:51.251Z,1.50
2023-01-07T08:29:54.956Z,1.63
2023-01-07T08:34:58.088Z,2.17
2023-01-07T08:40:05.738Z,1.50
2023-01-07T08:45:10.854Z,2.30
2023-01-07T08:50:13.923Z,1.43
2023-01-07T08:55:20.296Z,1.97
2023-01-07T09:00:23.977Z,1.53
2023-01-07T09:05:27.258Z,1.37
2023-01-07T09:10:32.216Z,1.60
2023-01-07T09:15:35.344Z,1.30
2023-01-07T09:20:38.407Z,1.57
2023-01-07T09:25:42.767Z,2.00
2023-01-07T09:30:48.206Z,1.40
2023-01-07T09:36:06.475Z,1.20
2023-01-07T09:41:26.621Z,1.63
2023-01-07T09:46:31.952Z,4.57
2023-01-07T09:51:39.434Z,0.93
2023-01-07T09:56:44.152Z,1.23
2023-01-07T10:07:22.321Z,3.27
2023-01-07T10:12:33.665Z,1.40
2023-01-07T10:17:47.067Z,1.27
2023-01-07T10:22:53.504Z,2.07
2023-01-07T10:28:04.265Z,0.90
2023-01-07T10:33:25.125Z,1.30
2023-01-07T10:38:31.344Z,0.90
2023-01-07T10:43:53.350Z,1.00
2023-01-07T10:49:11.995Z,1.60
2023-01-07T10:54:31.987Z,1.17
2023-01-07T10:59:38.079Z,1.00
2023-01-07T11:04:41.090Z,1.53
2023-01-07T11:09:49.137Z,1.17
2023-01-07T11:14:56.849Z,1.23
2023-01-07T11:19:59.971Z,1.20
2023-01-07T11:25:24.286Z,0.90
2023-01-07T11:30:32.656Z,1.07
2023-01-07T11:35:44.369Z,0.83
2023-01-07T11:40:59.956Z,2.87
2023-01-07T11:46:19.860Z,0.90
2023-01-07T11:51:25.673Z,1.10
2023-01-07T11:56:30.580Z,0.97
2023-01-07T12:01:43.075Z,0.80
2023-01-07T12:06:48.611Z,1.47
2023-01-07T12:11:55.508Z,1.10
2023-01-07T12:17:11.319Z,1.27
2023-01-07T12:22:25.059Z,1.63
2023-01-07T12:27:36.232Z,1.00
2023-01-07T12:32:55.592Z,1.80
2023-01-07T12:38:05.559Z,1.33
2023-01-07T12:43:15.119Z,1.30
2023-01-07T12:48:30.963Z,1.20
2023-01-07T12:53:40.691Z,1.20
2023-01-07T12:58:50.859Z,1.50
2023-01-07T13:04:07.081Z,2.30
2023-01-07T13:09:21.849Z,1.40
2023-01-07T13:14:28.568Z,1.77
2023-01-07T13:19:33.115Z,1.47
2023-01-07T13:24:56.163Z,1.00
2023-01-07T13:30:13.753Z,1.30
2023-01-07T13:35:32.643Z,1.30
2023-01-07T13:41:03.016Z,1.20
2023-01-07T13:46:11.687Z,1.37
2023-01-07T13:51:17.203Z,1.40
2023-01-07T13:56:51.529Z,1.30
2023-01-07T14:02:21.149Z,0.93
2023-01-07T14:07:27.985Z,1.73
2023-01-07T14:13:08.050Z,1.60
2023-01-07T14:18:50.244Z,1.50
2023-01-07T14:24:16.725Z,1.20
2023-01-07T14:29:40.817Z,1.20
2023-01-07T14:34:43.896Z,1.93
2023-01-07T14:39:48.813Z,1.50
2023-01-07T14:44:52.433Z,1.90
2023-01-07T14:50:20.401Z,1.70
2023-01-07T14:55:36.143Z,1.53
2023-01-07T15:00:57.614Z,1.37
2023-01-07T15:06:24.692Z,2.77
2023-01-07T15:11:47.647Z,3.50
2023-01-07T15:16:53.575Z,3.10
2023-01-07T15:22:08.311Z,2.10
2023-01-07T15:27:20.174Z,1.80
2023-01-07T15:32:38.046Z,2.00
2023-01-07T15:37:48.965Z,2.60
2023-01-07T15:42:56.145Z,1.67
2023-01-07T15:48:13.042Z,1.57
2023-01-07T15:53:26.682Z,1.53
2023-01-07T15:58:36.337Z,2.20
2023-01-07T16:03:40.681Z,2.10
2023-01-07T16:08:45.685Z,2.00
2023-01-07T16:13:59.380Z,2.20
2023-01-07T16:19:06.704Z,2.93
2023-01-07T16:24:16.727Z,1.73
2023-01-07T16:29:27.067Z,2.00
2023-01-07T16:34:54.530Z,2.70
2023-01-07T16:40:28.935Z,2.20
2023-01-07T16:46:13.422Z,2.70
2023-01-07T16:51:36.785Z,2.93
2023-01-07T16:56:50.885Z,2.77
2023-01-07T17:01:56.393Z,2.13
2023-01-07T17:07:02.117Z,2.30
2023-01-07T17:12:06.701Z,3.87
2023-01-07T17:17:22.883Z,2.40
2023-01-07T17:22:31.963Z,3.70
2023-01-07T17:27:39.500Z,2.73
2023-01-07T17:32:44.894Z,2.40
2023-01-07T17:37:52.604Z,2.60
2023-01-07T17:43:14.456Z,3.03
2023-01-07T17:48:20.047Z,2.40
2023-01-07T17:53:27.853Z,4.77
2023-01-07T17:58:36.446Z,3.17
2023-01-07T18:03:41.286Z,7.17
2023-01-07T18:08:44.539Z,2.70
2023-01-07T18:13:47.893Z,3.23
2023-01-07T18:18:56.595Z,3.40
2023-01-07T18:23:59.708Z,5.67
2023-01-07T18:29:02.709Z,4.73
2023-01-07T18:34:07.070Z,4.83
2023-01-07T18:39:20.168Z,2.90
2023-01-07T18:44:27.168Z,3.00
2023-01-07T18:49:31.549Z,2.90
2023-01-07T18:54:39.996Z,2.60
2023-01-07T18:59:43.364Z,2.90
2023-01-07T19:04:55.175Z,2.40
2023-01-07T19:09:58.349Z,3.13
2023-01-07T19:15:04.660Z,2.67
2023-01-07T19:20:10.322Z,2.77
2023-01-07T19:25:15.751Z,2.67
2023-01-07T19:30:19.155Z,3.50
2023-01-07T19:35:23.626Z,4.00
2023-01-07T19:40:26.701Z,3.17
2023-01-07T19:45:32.891Z,2.63
2023-01-07T19:50:37.341Z,2.20
2023-01-07T19:55:40.292Z,2.60
2023-01-07T20:00:43.397Z,3.60
2023-01-07T20:05:52.826Z,2.40
2023-01-07T20:11:01.495Z,2.07
2023-01-07T20:16:06.354Z,3.50
2023-01-07T20:21:11.628Z,2.97
2023-01-07T20:26:16.411Z,2.47
2023-01-07T20:31:26.586Z,4.10
2023-01-07T20:36:33.942Z,2.77
2023-01-07T20:41:38.879Z,4.53
2023-01-07T20:46:41.970Z,2.77
2023-01-07T20:51:46.400Z,2.70
2023-01-07T20:56:51.468Z,2.00
2023-01-07T21:01:57.133Z,3.47
2023-01-07T21:07:01.588Z,2.97
2023-01-07T21:12:07.659Z,3.23
2023-01-07T21:17:13.408Z,2.03
2023-01-07T21:22:19.651Z,2.10
2023-01-07T21:27:24.774Z,3.67
2023-01-07T21:32:30.943Z,3.73
2023-01-07T21:37:38.198Z,2.60
2023-01-07T21:42:41.505Z,2.47
2023-01-07T21:47:44.573Z,3.57
2023-01-07T21:52:48.996Z,3.60
2023-01-07T21:57:51.992Z,2.50
2023-01-07T22:02:55.079Z,3.77
2023-01-07T22:07:59.507Z,2.73
2023-01-07T22:13:02.643Z,3.20
2023-01-07T22:18:05.839Z,4.07
2023-01-07T22:23:16.480Z,3.87
2023-01-07T22:28:27.260Z,3.90
2023-01-07T22:33:30.271Z,3.30
2023-01-07T22:38:34.782Z,3.37
2023-01-07T22:43:38.115Z,3.37
2023-01-07T22:48:41.147Z,5.13
2023-01-07T22:53:45.788Z,3.10
2023-01-07T22:58:48.826Z,2.60
2023-01-07T23:03:51.924Z,4.37
2023-01-07T23:09:05.549Z,3.43
2023-01-07T23:14:08.617Z,3.10
2023-01-07T23:19:11.951Z,2.60
2023-01-07T23:24:16.506Z,2.63
2023-01-07T23:29:20.259Z,3.60
2023-01-07T23:34:23.404Z,3.43
2023-01-07T23:39:28.904Z,2.43
2023-01-07T23:44:31.895Z,2.83
2023-01-07T23:49:34.906Z,3.83
2023-01-07T23:54:39.660Z,4.40
2023-01-07T23:59:43.859Z,2.47
